Time;durP1;ratioP1;P1;durP2;ratioP2;P2;SDS_P1;SDS_P2;PMS_P1;PMS_P2;Temp;Humidity;BMP_temperature;BMP_pressure;BME280_temperature;BME280_humidity;BME280_pressure;Samples;Min_cycle;Max_cycle;Signal;HPM_P1;HPM_P2
2021/03/05 00:00:48;;;;;;;;;;;;;;;2.52;59.45;102603.81;4188305;28;19928;-85
2021/03/05 00:02:48;;;;;;;;;;;;;;;2.71;58.87;102607.69;4190015;28;19928;-85
2021/03/05 00:04:48;;;;;;;;;;;;;;;2.68;58.85;102611.50;4189139;28;19964;-85
2021/03/05 00:06:49;;;;;;;;;;;;;;;2.58;59.24;102613.22;4191858;28;19921;-84
2021/03/05 00:08:49;;;;;;;;;;;;;;;2.65;58.98;102617.16;4191619;28;20279;-85
2021/03/05 00:10:50;;;;;;;;;;;;;;;2.61;58.88;102623.78;4189793;28;20058;-83
2021/03/05 00:12:51;;;;;;;;;;;;;;;2.55;59.03;102624.28;4193643;28;20020;-83
2021/03/05 00:14:52;;;;;;;;;;;;;;;2.57;59.18;102623.19;4192201;28;19963;-84
2021/03/05 00:17:00;;;;;;;;;;;;;;;2.59;58.91;102626.63;4190415;28;19921;-85
2021/03/05 00:19:00;;;;;;;;;;;;;;;2.55;58.89;102629.69;4190107;28;20290;-84
2021/03/05 00:21:01;;;;;;;;;;;;;;;2.58;58.90;102624.94;4191973;28;19927;-84
2021/03/05 00:23:01;;;;;;;;;;;;;;;2.62;58.73;102625.53;4192441;28;19924;-84
2021/03/05 00:25:02;;;;;;;;;;;;;;;2.54;58.64;102625.31;4188323;28;19977;-84
2021/03/05 00:27:02;;;;;;;;;;;;;;;2.59;58.39;102636.59;4191391;28;19920;-84
2021/03/05 00:29:03;;;;;;;;;;;;;;;2.43;58.89;102632.44;4191415;28;19928;-84
2021/03/05 00:31:21;;;;;;;;;;;;;;;2.53;58.76;102637.94;4189836;28;19924;-84
2021/03/05 00:33:21;;;;;;;;;;;;;;;2.57;58.53;102642.13;4171891;28;20411;-85
2021/03/05 00:35:22;;;;;;;;;;;;;;;2.55;58.46;102640.50;4192181;28;20011;-85
2021/03/05 00:37:22;;;;;;;;;;;;;;;2.40;59.13;102648.91;4189786;28;20332;-84
2021/03/05 00:39:22;;;;;;;;;;;;;;;2.45;58.72;102643.97;4190840;28;19942;-84
2021/03/05 00:41:22;;;;;;;;;;;;;;;2.39;58.83;102654.44;4191343;28;20012;-84
2021/03/05 00:43:23;;;;;;;;;;;;;;;2.47;58.72;102648.41;4171044;28;20333;-85
2021/03/05 00:45:24;;;;;;;;;;;;;;;2.35;58.84;102651.13;4158274;28;20387;-84
2021/03/05 00:47:24;;;;;;;;;;;;;;;2.28;59.04;102649.88;4173334;28;20007;-85
2021/03/05 00:49:24;;;;;;;;;;;;;;;2.18;59.02;102649.78;4189979;28;20406;-84
2021/03/05 00:51:25;;;;;;;;;;;;;;;2.04;59.55;102653.56;4193193;28;19931;-85
2021/03/05 00:53:25;;;;;;;;;;;;;;;2.18;58.87;102657.88;4172317;28;20002;-84
2021/03/05 00:55:25;;;;;;;;;;;;;;;2.21;58.69;102659.44;4193210;28;20000;-85
2021/03/05 00:57:26;;;;;;;;;;;;;;;2.11;58.93;102653.09;4168248;28;20027;-86
2021/03/05 00:59:26;;;;;;;;;;;;;;;2.05;58.73;102660.69;4191875;28;19946;-84
2021/03/05 01:01:26;;;;;;;;;;;;;;;1.97;58.76;102668.53;4184422;28;19987;-86
2021/03/05 01:03:26;;;;;;;;;;;;;;;2.00;58.54;102668.28;4191316;28;19924;-84
2021/03/05 01:05:29;;;;;;;;;;;;;;;1.76;58.96;102664.78;4191672;28;19925;-83
2021/03/05 01:07:30;;;;;;;;;;;;;;;1.84;58.70;102667.72;4171012;28;19924;-84
2021/03/05 01:09:30;;;;;;;;;;;;;;;1.87;58.52;102673.78;4190469;28;20182;-85
2021/03/05 01:11:31;;;;;;;;;;;;;;;1.82;58.66;102670.56;4174861;28;19917;-84
2021/03/05 01:13:31;;;;;;;;;;;;;;;1.87;58.06;102672.88;4190667;28;19929;-85
2021/03/05 01:15:31;;;;;;;;;;;;;;;1.81;58.22;102670.66;4190950;28;19992;-85
2021/03/05 01:17:32;;;;;;;;;;;;;;;1.79;57.87;102676.19;4193475;28;20371;-85
2021/03/05 01:19:32;;;;;;;;;;;;;;;1.79;57.94;102675.34;4187786;28;20023;-84
2021/03/05 01:21:32;;;;;;;;;;;;;;;1.75;58.02;102674.72;4190201;28;19964;-84
2021/03/05 01:23:32;;;;;;;;;;;;;;;1.83;57.67;102674.97;4186266;28;19943;-83
2021/03/05 01:25:33;;;;;;;;;;;;;;;1.82;57.48;102684.06;4187767;28;19931;-84
2021/03/05 01:27:34;;;;;;;;;;;;;;;1.77;57.82;102682.72;4192804;28;19920;-84
2021/03/05 01:29:35;;;;;;;;;;;;;;;1.73;57.49;102679.38;4187516;28;19942;-83
2021/03/05 01:31:35;;;;;;;;;;;;;;;1.77;57.56;102688.09;4189883;28;19916;-84
2021/03/05 01:33:36;;;;;;;;;;;;;;;1.72;57.83;102689.31;4192393;28;19924;-84
2021/03/05 01:35:36;;;;;;;;;;;;;;;1.82;57.41;102685.91;4189773;28;19924;-85
2021/03/05 01:37:36;;;;;;;;;;;;;;;1.61;57.74;102694.69;4187755;28;19970;-84
2021/03/05 01:39:36;;;;;;;;;;;;;;;1.69;57.57;102696.81;4191526;28;19939;-85
2021/03/05 01:41:37;;;;;;;;;;;;;;;1.82;56.97;102694.00;4189353;28;19920;-85
2021/03/05 01:43:39;;;;;;;;;;;;;;;1.78;57.10;102697.91;4191890;28;19928;-85
2021/03/05 01:45:40;;;;;;;;;;;;;;;1.68;57.48;102692.38;4191579;28;20015;-86
2021/03/05 01:47:41;;;;;;;;;;;;;;;1.78;56.94;102692.50;4187756;28;20659;-86
2021/03/05 01:49:41;;;;;;;;;;;;;;;1.74;57.09;102690.03;4192993;28;20027;-86
2021/03/05 01:51:41;;;;;;;;;;;;;;;1.58;57.64;102692.22;4169238;28;19968;-86
2021/03/05 01:53:42;;;;;;;;;;;;;;;1.69;57.25;102694.09;4191141;28;19930;-86
2021/03/05 01:55:42;;;;;;;;;;;;;;;1.65;57.47;102693.47;4193375;28;19935;-85
2021/03/05 01:57:43;;;;;;;;;;;;;;;1.59;57.49;102695.78;4174936;28;19982;-85
2021/03/05 01:59:43;;;;;;;;;;;;;;;1.55;57.49;102706.81;4190642;28;20294;-85
2021/03/05 02:01:43;;;;;;;;;;;;;;;1.34;58.06;102703.88;4192909;28;19920;-84
2021/03/05 02:03:43;;;;;;;;;;;;;;;1.47;57.58;102706.53;4193181;28;19921;-84
2021/03/05 02:05:44;;;;;;;;;;;;;;;1.45;57.56;102703.06;4196096;28;19956;-84
2021/03/05 02:07:44;;;;;;;;;;;;;;;1.42;57.49;102710.56;4174723;28;19924;-84
2021/03/05 02:09:47;;;;;;;;;;;;;;;1.41;57.29;102711.50;4195156;28;19920;-84
2021/03/05 02:11:47;;;;;;;;;;;;;;;1.40;57.31;102702.56;4170371;28;19956;-84
2021/03/05 02:13:48;;;;;;;;;;;;;;;1.26;57.80;102709.00;4191783;28;19978;-83
2021/03/05 02:15:49;;;;;;;;;;;;;;;1.26;57.75;102709.00;4192647;28;19916;-85
2021/03/05 02:17:59;;;;;;;;;;;;;;;1.23;57.75;102714.63;4192103;28;20015;-85
2021/03/05 02:20:06;;;;;;;;;;;;;;;1.17;57.85;102713.28;4176300;28;20014;-85
2021/03/05 02:22:45;;;;;;;;;;;;;;;1.16;57.65;102711.53;4191217;28;20020;-85
2021/03/05 02:24:46;;;;;;;;;;;;;;;1.16;57.59;102721.47;4159675;28;19917;-84
2021/03/05 02:27:04;;;;;;;;;;;;;;;1.08;57.68;102715.78;4163489;28;19917;-84
2021/03/05 02:29:04;;;;;;;;;;;;;;;0.99;57.76;102718.19;4155449;28;19921;-85
2021/03/05 02:31:08;;;;;;;;;;;;;;;0.97;57.87;102717.44;4192621;28;19939;-85
2021/03/05 02:33:11;;;;;;;;;;;;;;;0.89;57.96;102725.22;4193172;28;20233;-85
2021/03/05 02:35:13;;;;;;;;;;;;;;;0.90;57.77;102723.41;4192899;28;20297;-85
2021/03/05 02:37:13;;;;;;;;;;;;;;;0.81;58.19;102728.47;4194072;28;19924;-85
2021/03/05 02:39:14;;;;;;;;;;;;;;;0.85;58.00;102726.44;4191121;28;19935;-84
2021/03/05 02:41:15;;;;;;;;;;;;;;;0.95;57.79;102724.78;4191052;28;20305;-85
2021/03/05 02:43:18;;;;;;;;;;;;;;;0.92;57.92;102713.38;4195943;28;19927;-84
2021/03/05 02:45:20;;;;;;;;;;;;;;;0.88;57.89;102718.13;4174997;28;20314;-86
2021/03/05 02:47:22;;;;;;;;;;;;;;;0.78;58.08;102723.31;4194275;28;20012;-85
2021/03/05 02:49:24;;;;;;;;;;;;;;;0.74;58.31;102729.91;4193966;28;19931;-84
2021/03/05 02:51:26;;;;;;;;;;;;;;;0.76;58.52;102729.81;4175001;28;19924;-85
2021/03/05 02:53:26;;;;;;;;;;;;;;;0.79;58.61;102729.59;4191771;28;19917;-84
2021/03/05 02:55:27;;;;;;;;;;;;;;;0.84;58.09;102730.94;4193881;28;20290;-85
2021/03/05 02:57:30;;;;;;;;;;;;;;;0.80;58.14;102725.88;4193700;28;19955;-85
2021/03/05 02:59:31;;;;;;;;;;;;;;;0.80;58.07;102731.28;4195668;28;19939;-84
2021/03/05 03:01:32;;;;;;;;;;;;;;;0.80;58.14;102732.16;4193041;28;20362;-84
2021/03/05 03:03:33;;;;;;;;;;;;;;;0.56;58.56;102721.31;4191257;28;19916;-85
2021/03/05 03:05:33;;;;;;;;;;;;;;;0.69;58.45;102728.50;4193521;28;19978;-84
2021/03/05 03:07:35;;;;;;;;;;;;;;;0.61;58.70;102743.41;4172768;28;19935;-85
2021/03/05 03:09:37;;;;;;;;;;;;;;;0.64;58.73;102747.72;4172911;28;19936;-85
2021/03/05 03:11:39;;;;;;;;;;;;;;;0.60;58.86;102747.06;4188648;28;19917;-83
2021/03/05 03:13:40;;;;;;;;;;;;;;;0.61;59.04;102743.41;4193490;28;19920;-85
2021/03/05 03:15:41;;;;;;;;;;;;;;;0.64;58.84;102743.16;4190478;28;20024;-84
2021/03/05 03:17:45;;;;;;;;;;;;;;;0.58;58.88;102743.59;4190019;28;19920;-84
2021/03/05 03:19:49;;;;;;;;;;;;;;;0.57;58.93;102749.09;4176097;28;19919;-85
2021/03/05 03:21:50;;;;;;;;;;;;;;;0.59;58.91;102750.72;4187733;28;19943;-84
2021/03/05 03:23:51;;;;;;;;;;;;;;;0.53;59.41;102753.88;4190819;28;20322;-85
2021/03/05 03:25:52;;;;;;;;;;;;;;;0.54;59.22;102752.91;4185207;28;19920;-84
2021/03/05 03:27:53;;;;;;;;;;;;;;;0.56;59.11;102758.19;4190782;28;19927;-84
2021/03/05 03:29:54;;;;;;;;;;;;;;;0.54;59.25;102757.41;4193237;28;20380;-84
2021/03/05 03:31:54;;;;;;;;;;;;;;;0.56;59.22;102759.03;4193103;28;19920;-85
2021/03/05 03:33:54;;;;;;;;;;;;;;;0.54;59.06;102754.72;4190967;28;19927;-84
2021/03/05 03:35:54;;;;;;;;;;;;;;;0.54;59.10;102757.41;4194728;28;19939;-84
2021/03/05 03:37:56;;;;;;;;;;;;;;;0.46;59.12;102756.16;4188631;28;19920;-85
2021/03/05 03:39:56;;;;;;;;;;;;;;;0.50;58.81;102755.94;4191447;28;19920;-84
2021/03/05 03:41:59;;;;;;;;;;;;;;;0.44;58.98;102762.59;4194815;28;19916;-85
2021/03/05 03:43:59;;;;;;;;;;;;;;;0.43;59.23;102763.56;4191907;28;19916;-85
2021/03/05 03:45:59;;;;;;;;;;;;;;;0.41;59.14;102778.97;4193257;28;19920;-85
2021/03/05 03:48:00;;;;;;;;;;;;;;;0.39;59.43;102770.16;4194706;28;19917;-84
2021/03/05 03:50:01;;;;;;;;;;;;;;;0.41;59.30;102773.59;4190376;28;19931;-85
2021/03/05 03:52:37;;;;;;;;;;;;;;;0.43;59.26;102775.22;4192557;28;20482;-84
2021/03/05 03:54:37;;;;;;;;;;;;;;;0.38;59.34;102779.19;4114174;28;20332;-84
2021/03/05 03:56:38;;;;;;;;;;;;;;;0.39;59.29;102780.94;4163973;28;19919;-84
2021/03/05 03:58:40;;;;;;;;;;;;;;;0.37;59.05;102785.53;4189197;28;19924;-84
2021/03/05 04:00:41;;;;;;;;;;;;;;;0.32;59.13;102785.88;4190968;28;20402;-84
2021/03/05 04:02:44;;;;;;;;;;;;;;;0.33;59.14;102789.44;4194371;28;19924;-84
2021/03/05 04:04:46;;;;;;;;;;;;;;;0.27;59.50;102790.72;4193618;28;19967;-84
2021/03/05 04:06:49;;;;;;;;;;;;;;;0.30;59.30;102795.88;4190841;28;20293;-85
2021/03/05 04:08:49;;;;;;;;;;;;;;;0.30;59.20;102802.13;4171889;28;20008;-85
2021/03/05 04:10:50;;;;;;;;;;;;;;;0.24;59.32;102796.31;4191617;28;19967;-84
2021/03/05 04:12:50;;;;;;;;;;;;;;;0.27;59.34;102802.34;4192338;28;19973;-85
2021/03/05 04:14:51;;;;;;;;;;;;;;;0.20;59.41;102795.69;4175942;28;19943;-85
2021/03/05 04:16:54;;;;;;;;;;;;;;;0.24;59.25;102809.78;4191585;28;20385;-84
2021/03/05 04:18:55;;;;;;;;;;;;;;;0.24;59.25;102801.69;4171729;28;19921;-85
2021/03/05 04:20:57;;;;;;;;;;;;;;;0.24;59.40;102810.63;4187926;28;19924;-85
2021/03/05 04:22:57;;;;;;;;;;;;;;;0.24;59.13;102815.16;4189250;28;19924;-84
2021/03/05 04:24:58;;;;;;;;;;;;;;;0.16;59.62;102817.53;4189152;28;19989;-84
2021/03/05 04:26:58;;;;;;;;;;;;;;;0.26;59.29;102813.22;4189616;28;19924;-85
2021/03/05 04:28:58;;;;;;;;;;;;;;;0.23;59.14;102811.63;4192410;28;20370;-84
2021/03/05 04:30:58;;;;;;;;;;;;;;;0.24;59.08;102817.88;4193908;28;20002;-84
2021/03/05 04:32:59;;;;;;;;;;;;;;;0.24;59.24;102818.72;4191475;28;19924;-84
2021/03/05 04:34:59;;;;;;;;;;;;;;;0.21;59.25;102815.38;4190961;28;20683;-84
2021/03/05 04:37:00;;;;;;;;;;;;;;;0.18;59.04;102821.81;4168918;28;19920;-84
2021/03/05 04:39:00;;;;;;;;;;;;;;;0.12;59.14;102825.81;4191162;28;19924;-84
2021/03/05 04:41:00;;;;;;;;;;;;;;;0.12;59.06;102822.25;4194004;28;19947;-85
2021/03/05 04:43:01;;;;;;;;;;;;;;;0.08;59.56;102829.69;4190869;28;20011;-85
2021/03/05 04:45:02;;;;;;;;;;;;;;;0.07;59.23;102830.63;4175577;28;19934;-83
2021/03/05 04:47:02;;;;;;;;;;;;;;;0.08;59.42;102835.06;4192281;28;19965;-85
2021/03/05 04:49:03;;;;;;;;;;;;;;;0.08;59.37;102837.75;4189521;28;19967;-85
2021/03/05 04:51:04;;;;;;;;;;;;;;;0.16;58.96;102836.38;4175985;28;19921;-85
2021/03/05 04:53:04;;;;;;;;;;;;;;;0.06;59.20;102839.69;4189803;28;19924;-84
2021/03/05 04:55:05;;;;;;;;;;;;;;;0.04;59.21;102838.91;4171164;28;20394;-84
2021/03/05 04:57:05;;;;;;;;;;;;;;;0.01;59.15;102849.03;4186968;28;20007;-83
2021/03/05 04:59:05;;;;;;;;;;;;;;;0.02;59.09;102848.09;4187382;28;19931;-85
2021/03/05 05:01:06;;;;;;;;;;;;;;;0.01;59.16;102844.50;4190927;28;19920;-85
2021/03/05 05:03:06;;;;;;;;;;;;;;;0.01;59.33;102854.44;4190631;28;19920;-84
2021/03/05 05:05:06;;;;;;;;;;;;;;;0.05;58.96;102851.44;4190725;28;19970;-85
2021/03/05 05:07:07;;;;;;;;;;;;;;;-0.03;59.42;102855.59;4191991;28;20027;-84
2021/03/05 05:09:07;;;;;;;;;;;;;;;0.02;59.37;102864.25;4192529;28;19925;-85
2021/03/05 05:11:07;;;;;;;;;;;;;;;0.01;59.29;102859.81;4189903;28;19924;-84
2021/03/05 05:13:08;;;;;;;;;;;;;;;-0.00;59.56;102863.47;4189097;28;19921;-85
2021/03/05 05:15:08;;;;;;;;;;;;;;;-0.01;59.57;102868.00;4187230;28;19921;-84
2021/03/05 05:17:08;;;;;;;;;;;;;;;0.02;59.41;102864.25;4190179;28;19928;-85
2021/03/05 05:19:08;;;;;;;;;;;;;;;0.03;59.43;102866.84;4186910;28;19959;-84
2021/03/05 05:21:09;;;;;;;;;;;;;;;0.01;59.71;102871.44;4170757;28;19925;-82
2021/03/05 05:23:09;;;;;;;;;;;;;;;0.03;59.70;102868.66;4185023;28;19928;-84
2021/03/05 05:25:09;;;;;;;;;;;;;;;0.13;59.35;102867.06;4184227;28;19917;-85
2021/03/05 05:27:10;;;;;;;;;;;;;;;0.20;58.98;102867.50;4190765;28;19958;-84
2021/03/05 05:29:10;;;;;;;;;;;;;;;-0.03;59.47;102875.31;4191698;28;20018;-84
2021/03/05 05:31:10;;;;;;;;;;;;;;;0.12;59.24;102876.97;4186715;28;19925;-85
2021/03/05 05:33:11;;;;;;;;;;;;;;;0.15;59.30;102878.59;4190271;28;19924;-84
2021/03/05 05:35:11;;;;;;;;;;;;;;;0.11;59.43;102874.41;4175789;28;20079;-84
2021/03/05 05:37:11;;;;;;;;;;;;;;;0.09;59.83;102879.88;4193646;28;19920;-83
2021/03/05 05:39:11;;;;;;;;;;;;;;;0.23;59.51;102876.25;4175280;28;19968;-84
2021/03/05 05:41:12;;;;;;;;;;;;;;;0.22;59.40;102879.06;4166294;28;19978;-85
2021/03/05 05:43:12;;;;;;;;;;;;;;;0.25;59.66;102876.16;4192113;28;19943;-84
2021/03/05 05:45:13;;;;;;;;;;;;;;;0.27;59.65;102880.44;4174924;28;20434;-84
2021/03/05 05:47:14;;;;;;;;;;;;;;;0.37;59.58;102882.50;4183752;28;19925;-84
2021/03/05 05:49:15;;;;;;;;;;;;;;;0.34;59.52;102886.31;4178119;28;19925;-84
2021/03/05 05:51:27;;;;;;;;;;;;;;;0.34;59.60;102883.59;4179578;28;20371;-84
2021/03/05 05:53:33;;;;;;;;;;;;;;;0.41;59.48;102882.19;4177382;28;20357;-84
2021/03/05 05:55:33;;;;;;;;;;;;;;;0.45;59.47;102883.72;4179221;28;20471;-84
2021/03/05 05:57:36;;;;;;;;;;;;;;;0.37;59.33;102886.09;4177392;28;19932;-85
2021/03/05 05:59:37;;;;;;;;;;;;;;;0.39;59.32;102884.16;4179847;28;19932;-85
2021/03/05 06:01:38;;;;;;;;;;;;;;;0.43;59.41;102893.75;4174097;28;19925;-84
2021/03/05 06:03:39;;;;;;;;;;;;;;;0.48;59.11;102885.34;4175413;28;20367;-84
2021/03/05 06:05:39;;;;;;;;;;;;;;;0.50;59.10;102888.78;4156746;28;20343;-85
2021/03/05 06:07:41;;;;;;;;;;;;;;;0.52;59.16;102904.84;4178209;28;19920;-85
2021/03/05 06:09:41;;;;;;;;;;;;;;;0.54;59.10;102902.91;4159409;28;19951;-85
2021/03/05 06:11:42;;;;;;;;;;;;;;;0.54;58.99;102909.19;4177483;28;19925;-85
2021/03/05 06:13:42;;;;;;;;;;;;;;;0.59;58.81;102915.09;4178557;28;19982;-84
2021/03/05 06:15:43;;;;;;;;;;;;;;;0.58;58.88;102924.16;4178269;28;19940;-85
2021/03/05 06:17:47;;;;;;;;;;;;;;;0.60;58.74;102924.03;4172938;28;19929;-84
2021/03/05 06:19:55;;;;;;;;;;;;;;;0.57;58.96;102922.44;4155913;28;19921;-84
2021/03/05 06:21:56;;;;;;;;;;;;;;;0.58;59.07;102926.00;4170985;28;19932;-84
2021/03/05 06:24:00;;;;;;;;;;;;;;;0.58;58.98;102931.38;4177708;28;20127;-85
2021/03/05 06:26:01;;;;;;;;;;;;;;;0.58;59.01;102934.06;4175538;28;20518;-85
2021/03/05 06:28:14;;;;;;;;;;;;;;;0.63;58.93;102938.19;4179601;28;20003;-84
2021/03/05 06:30:27;;;;;;;;;;;;;;;0.64;58.94;102936.34;4176336;28;19993;-84
2021/03/05 06:32:35;;;;;;;;;;;;;;;0.68;58.74;102939.69;4160459;28;20478;-84
2021/03/05 06:34:48;;;;;;;;;;;;;;;0.71;58.50;102944.88;4159610;28;19940;-84
2021/03/05 06:37:05;;;;;;;;;;;;;;;0.69;58.78;102949.50;4175318;28;19959;-84
2021/03/05 06:39:05;;;;;;;;;;;;;;;0.71;58.62;102961.03;4177678;28;19916;-83
2021/03/05 06:41:19;;;;;;;;;;;;;;;0.69;58.72;102953.06;4177061;28;20526;-84
2021/03/05 06:43:19;;;;;;;;;;;;;;;0.87;58.32;102964.41;4163034;28;19966;-84
2021/03/05 06:45:24;;;;;;;;;;;;;;;1.19;57.44;102967.56;4174973;28;20399;-84
2021/03/05 06:47:25;;;;;;;;;;;;;;;1.25;57.19;102965.38;4187306;28;20662;-84
2021/03/05 06:49:26;;;;;;;;;;;;;;;1.26;56.72;102976.06;4193771;28;19943;-84
2021/03/05 06:51:26;;;;;;;;;;;;;;;1.23;57.21;102973.59;4190109;28;19928;-84
2021/03/05 06:53:26;;;;;;;;;;;;;;;1.28;57.05;102974.09;4193653;28;19926;-85
2021/03/05 06:55:27;;;;;;;;;;;;;;;1.35;56.97;102975.41;4193944;28;19967;-84
2021/03/05 06:57:27;;;;;;;;;;;;;;;1.40;56.67;102987.72;4191896;28;20090;-84
2021/03/05 06:59:39;;;;;;;;;;;;;;;1.42;56.93;102985.78;4195572;28;20367;-85
2021/03/05 07:01:58;;;;;;;;;;;;;;;1.51;56.79;102982.41;4175588;28;19920;-84
2021/03/05 07:04:08;;;;;;;;;;;;;;;1.60;56.67;102987.16;4193706;28;20263;-84
2021/03/05 07:06:16;;;;;;;;;;;;;;;1.66;57.11;102986.72;4189904;28;19975;-84
2021/03/05 07:08:39;;;;;;;;;;;;;;;2.07;56.47;102987.38;4191708;28;19964;-84
2021/03/05 07:10:39;;;;;;;;;;;;;;;2.69;57.53;102991.75;4172631;28;20398;-85
2021/03/05 07:12:58;;;;;;;;;;;;;;;3.18;57.55;102992.47;4191980;28;19931;-84
2021/03/05 07:14:59;;;;;;;;;;;;;;;3.81;56.52;102998.28;4193552;28;19923;-85
2021/03/05 07:17:00;;;;;;;;;;;;;;;4.29;56.29;103004.34;4191785;28;20370;-84
2021/03/05 07:19:00;;;;;;;;;;;;;;;4.66;55.90;103004.00;4174973;28;19951;-85
2021/03/05 07:21:01;;;;;;;;;;;;;;;5.27;53.76;103003.28;4195393;28;19912;-85
2021/03/05 07:23:01;;;;;;;;;;;;;;;5.64;52.67;103003.63;4192564;28;20390;-85
2021/03/05 07:25:02;;;;;;;;;;;;;;;6.16;50.95;103003.50;4189357;28;20051;-85
2021/03/05 07:27:03;;;;;;;;;;;;;;;6.18;49.98;103004.19;4190023;28;19920;-84
2021/03/05 07:29:04;;;;;;;;;;;;;;;6.10;51.55;103008.59;4192942;28;20305;-85
2021/03/05 07:31:05;;;;;;;;;;;;;;;6.20;49.48;103007.63;4194950;28;19931;-84
2021/03/05 07:33:10;;;;;;;;;;;;;;;6.31;51.44;103014.81;4193332;28;19999;-84
2021/03/05 07:35:17;;;;;;;;;;;;;;;6.46;50.85;103017.16;4193226;28;19927;-84
2021/03/05 07:37:18;;;;;;;;;;;;;;;6.46;49.97;103020.75;4193469;28;19969;-85
2021/03/05 07:39:20;;;;;;;;;;;;;;;6.62;50.73;103027.47;4190442;28;19964;-84
2021/03/05 07:41:21;;;;;;;;;;;;;;;6.60;49.88;103027.63;4194352;28;20620;-84
2021/03/05 07:43:22;;;;;;;;;;;;;;;6.55;48.77;103024.44;4192395;28;19920;-84
2021/03/05 07:45:22;;;;;;;;;;;;;;;6.67;47.44;103036.91;4190899;28;20563;-85
2021/03/05 07:47:25;;;;;;;;;;;;;;;6.64;48.06;103034.47;4194846;28;19928;-84
2021/03/05 07:49:30;;;;;;;;;;;;;;;6.51;47.46;103037.47;4191099;28;19920;-84
2021/03/05 07:51:32;;;;;;;;;;;;;;;6.60;48.15;103034.91;4193030;28;19922;-85
2021/03/05 07:53:52;;;;;;;;;;;;;;;6.51;46.15;103036.63;4191318;28;19927;-85
2021/03/05 07:55:52;;;;;;;;;;;;;;;6.33;44.37;103039.19;4192541;28;20390;-84
2021/03/05 07:57:52;;;;;;;;;;;;;;;6.26;46.77;103044.28;4193843;28;19931;-84
2021/03/05 07:59:54;;;;;;;;;;;;;;;6.43;44.00;103044.66;4191638;28;19964;-85
2021/03/05 08:01:55;;;;;;;;;;;;;;;6.34;44.81;103051.78;4196399;28;19920;-84
2021/03/05 08:03:55;;;;;;;;;;;;;;;6.35;44.18;103054.38;4184222;28;20331;-83
2021/03/05 08:05:58;;;;;;;;;;;;;;;6.17;43.59;103054.13;4189250;28;19999;-84
2021/03/05 08:08:06;;;;;;;;;;;;;;;6.16;44.73;103051.56;4194604;28;20374;-84
2021/03/05 08:10:06;;;;;;;;;;;;;;;6.06;46.64;103050.69;4191607;28;19935;-83
2021/03/05 08:12:33;;;;;;;;;;;;;;;5.96;44.42;103056.94;4192496;28;19924;-84
2021/03/05 08:14:33;;;;;;;;;;;;;;;6.28;44.05;103061.31;4185690;28;19921;-83
2021/03/05 08:16:34;;;;;;;;;;;;;;;5.74;43.31;103073.44;4191602;28;19975;-84
2021/03/05 08:18:34;;;;;;;;;;;;;;;5.64;43.45;103066.09;4187649;28;19924;-84
2021/03/05 08:20:34;;;;;;;;;;;;;;;6.08;45.80;103074.00;4187109;28;19958;-84
2021/03/05 08:23:03;;;;;;;;;;;;;;;6.04;43.92;103070.72;4175192;28;19912;-84
2021/03/05 08:25:23;;;;;;;;;;;;;;;5.48;43.83;103065.72;4188588;28;19920;-84
2021/03/05 08:27:32;;;;;;;;;;;;;;;5.85;43.48;103076.06;4189475;28;19923;-85
2021/03/05 08:29:48;;;;;;;;;;;;;;;5.64;43.65;103082.41;4190477;28;20022;-84
2021/03/05 08:31:48;;;;;;;;;;;;;;;5.76;44.13;103079.59;4185494;28;19920;-84
2021/03/05 08:33:48;;;;;;;;;;;;;;;5.71;43.95;103081.88;4189550;28;19930;-84
2021/03/05 08:35:49;;;;;;;;;;;;;;;5.88;43.51;103074.94;4191713;28;20002;-84
2021/03/05 08:38:00;;;;;;;;;;;;;;;5.77;42.54;103065.88;4188136;28;19956;-85
2021/03/05 08:40:13;;;;;;;;;;;;;;;6.04;42.61;103080.72;4192281;28;19958;-85
2021/03/05 08:42:35;;;;;;;;;;;;;;;5.93;42.67;103084.41;4186172;28;20027;-85
2021/03/05 08:44:35;;;;;;;;;;;;;;;6.32;42.50;103072.81;4175649;28;19964;-84
2021/03/05 08:46:36;;;;;;;;;;;;;;;6.77;43.36;103082.31;4172322;28;19927;-84
2021/03/05 08:48:40;;;;;;;;;;;;;;;6.96;41.81;103089.66;4173880;28;19928;-85
2021/03/05 08:50:41;;;;;;;;;;;;;;;7.59;41.97;103102.78;4176095;28;19954;-86
2021/03/05 08:52:43;;;;;;;;;;;;;;;8.08;39.43;103097.16;4176358;28;19920;-84
2021/03/05 08:54:43;;;;;;;;;;;;;;;8.72;36.32;103100.81;4175911;28;19925;-84
2021/03/05 08:56:44;;;;;;;;;;;;;;;9.46;35.05;103096.03;4153932;28;20012;-85
2021/03/05 08:58:54;;;;;;;;;;;;;;;10.14;33.35;103105.31;4166183;28;19963;-85
2021/03/05 09:00:54;;;;;;;;;;;;;;;10.12;36.73;103096.44;4174555;28;20689;-85
2021/03/05 09:03:13;;;;;;;;;;;;;;;9.96;33.62;103100.78;4149916;28;19929;-84
2021/03/05 09:05:23;;;;;;;;;;;;;;;9.57;36.40;103106.69;4155008;28;19978;-86
2021/03/05 09:07:23;;;;;;;;;;;;;;;9.72;34.00;103106.97;4173571;28;19921;-85
2021/03/05 09:09:28;;;;;;;;;;;;;;;8.61;34.90;103110.09;4172114;28;19935;-84
2021/03/05 09:11:28;;;;;;;;;;;;;;;9.08;36.94;103095.34;4171684;28;19926;-85
2021/03/05 09:13:32;;;;;;;;;;;;;;;9.85;34.03;103097.47;4172371;28;20004;-86
2021/03/05 09:15:54;;;;;;;;;;;;;;;10.19;31.73;103105.66;4172977;28;19916;-85
2021/03/05 09:17:55;;;;;;;;;;;;;;;10.99;31.15;103104.38;4175835;28;20015;-82
2021/03/05 09:19:55;;;;;;;;;;;;;;;10.33;30.31;103105.06;4163224;28;19928;-82
2021/03/05 09:22:14;;;;;;;;;;;;;;;10.31;28.87;103106.25;4170002;28;19932;-82
2021/03/05 09:24:15;;;;;;;;;;;;;;;10.78;27.36;103104.84;4168226;28;20278;-83
2021/03/05 09:26:16;;;;;;;;;;;;;;;10.62;28.47;103108.41;4141723;28;19930;-83
2021/03/05 09:28:16;;;;;;;;;;;;;;;9.81;29.56;103099.69;4155816;28;20394;-83
2021/03/05 09:30:21;;;;;;;;;;;;;;;10.25;32.90;103104.16;4174735;28;19924;-83
2021/03/05 09:32:21;;;;;;;;;;;;;;;11.31;30.05;103103.53;4155870;28;19920;-83
2021/03/05 09:34:22;;;;;;;;;;;;;;;11.90;25.67;103116.13;4173916;28;20027;-83
2021/03/05 09:36:23;;;;;;;;;;;;;;;11.52;27.38;103113.97;4174577;28;19982;-84
2021/03/05 09:38:23;;;;;;;;;;;;;;;11.15;28.28;103109.00;4172951;28;19924;-84
2021/03/05 09:40:28;;;;;;;;;;;;;;;11.54;28.10;103122.03;4176567;28;19935;-84
2021/03/05 09:42:47;;;;;;;;;;;;;;;11.67;26.56;103119.59;4174921;28;20007;-86
2021/03/05 09:44:47;;;;;;;;;;;;;;;11.17;26.92;103117.94;4157347;28;20445;-83
2021/03/05 09:46:54;;;;;;;;;;;;;;;11.21;27.93;103116.53;4180405;28;19967;-84
2021/03/05 09:48:54;;;;;;;;;;;;;;;11.84;26.95;103125.06;4172934;28;20016;-84
2021/03/05 09:50:57;;;;;;;;;;;;;;;12.36;26.00;103119.06;4182442;28;19974;-84
2021/03/05 09:52:57;;;;;;;;;;;;;;;12.54;24.84;103121.53;4186905;28;19970;-85
2021/03/05 09:54:57;;;;;;;;;;;;;;;12.19;27.21;103125.63;4188308;28;19925;-84
2021/03/05 09:56:57;;;;;;;;;;;;;;;12.04;26.60;103126.38;4187128;28;19924;-85
2021/03/05 09:59:01;;;;;;;;;;;;;;;12.29;26.97;103121.63;4166165;28;19963;-85
2021/03/05 10:01:02;;;;;;;;;;;;;;;12.86;26.87;103132.53;4188480;28;19931;-84
2021/03/05 10:03:06;;;;;;;;;;;;;;;12.51;25.74;103132.03;4170421;28;19959;-84
2021/03/05 10:05:06;;;;;;;;;;;;;;;12.60;25.86;103133.69;4184906;28;19947;-84
2021/03/05 10:07:07;;;;;;;;;;;;;;;12.18;26.34;103134.94;4157363;28;19925;-84
2021/03/05 10:09:08;;;;;;;;;;;;;;;11.65;27.17;103140.84;4186379;28;19929;-83
2021/03/05 10:11:09;;;;;;;;;;;;;;;11.46;27.91;103135.72;4186696;28;19920;-86
2021/03/05 10:13:09;;;;;;;;;;;;;;;10.82;28.67;103129.00;4189810;28;19921;-83
2021/03/05 10:15:10;;;;;;;;;;;;;;;10.20;29.63;103140.25;4163287;28;20011;-85
2021/03/05 10:17:14;;;;;;;;;;;;;;;10.47;28.81;103141.03;4184862;28;20355;-84
2021/03/05 10:19:15;;;;;;;;;;;;;;;10.46;29.98;103142.91;4193110;28;19924;-83
2021/03/05 10:21:16;;;;;;;;;;;;;;;10.63;29.42;103137.53;4170943;28;19972;-83
2021/03/05 10:23:17;;;;;;;;;;;;;;;10.24;29.84;103135.28;4189347;28;19920;-85
2021/03/05 10:25:18;;;;;;;;;;;;;;;9.63;30.82;103129.81;4193345;28;19920;-84
2021/03/05 10:27:24;;;;;;;;;;;;;;;9.23;30.17;103148.41;4190616;28;19980;-85
2021/03/05 10:29:24;;;;;;;;;;;;;;;9.21;31.52;103147.72;4173755;28;20303;-85
2021/03/05 10:31:43;;;;;;;;;;;;;;;9.21;31.44;103147.72;4192934;28;19920;-84
2021/03/05 10:33:44;;;;;;;;;;;;;;;9.79;30.73;103148.19;4190401;28;19925;-86
2021/03/05 10:35:45;;;;;;;;;;;;;;;10.01;30.05;103154.16;4190088;28;19924;-85
2021/03/05 10:37:45;;;;;;;;;;;;;;;9.59;31.09;103158.47;4192185;28;19965;-86